To NAV CANADA Home Page Login to a new session Search on AWWS site Feedback and Comments Disclaimer Vers la page française équivalente Tips FAQ What's new on the site To the Forecasts and Observations / NOTAM section To "File a Flight Plan" website Publications and other links Update of the User's profile FIC Telephone Numbers My Weather Data Folder Route Weather Data Regional Weather Data Local Weather Data To the Forecasts and Observations / NOTAM section
Request Generated 01/17/2017 at 04:53:29 UTC . Weather information available at that time is displayed.

METAR/TAF

CALGARY/SPRINGBANK/AB    (show WxCam)

METAR CYBW 170400Z AUTO 20015G20KT 9SM CLR 05/M02 A2965 RMK SLP086=
SPECI CYBW 170313Z AUTO 25012G18KT 9SM FEW210 SCT230 05/M01 A2966 RMK
WSHFT AT 0300Z SLP096=
METAR CYBW 170300Z AUTO 20008KT 9SM FEW190 SCT210 BKN230 05/M01 A2967
RMK SLP099=
METAR CYBW 170200Z AUTO 23013KT 9SM OVC170 06/M02 A2970 RMK SLP106
DENSITY ALT 4000FT=

TAF CYBW 162338Z 1700/1705 28015G25KT P6SM BKN180
RMK FCST BASED ON AUTO OBS. NXT FCST WILL BE ISSUED AT 171245Z=
Your time UTC time
Weather data provided by Environment Canada and NAV CANADA